Station: ELLX - 20/07/2019 08:50Z (il y a 30 minutes)
ELLX 200850Z 20008KT 150V240 CAVOK 24/15 Q1013 NOSIG
Vent du 200º - 8 kt (vent de direction variable de 150º à 240º)
Visibilité > 10 km et plafond haut ou pas de nuages significatifs
Température: +24ºC - Point de rosée: +15ºC - QNH: 1013 hPa
Pas de changement significatif prévu dans les 2 heures qui suivent l'observation